CKE weather

Lampson Field
Lakeport, California, United States

Public forecast

Using degrees Fahrenheit for public forecast. Weather courtesy of forecast.io.

METAR (pilot weather report)

Closest report is Ukiah Municipal Airport, 16.2 nm (30.0 km) WNW. Retrieved 2019/09/22 16:56 UTC (52 minutes ago):

KUKI 221656Z AUTO 00000KT 10SM FEW120 17/09 A2996 RMK AO2 SLP137 T01670094

TAF (pilot weather forecast)

Closest forecast is Ukiah Municipal Airport, 16.2 nm (30.0 km) WNW. Retrieved 2019/09/22 12:22 UTC (5 hours ago):

TAF KUKI 221120Z 2212/2312 00000KT P6SM SKC FM222000 30010KT P6SM SKC FM230500 35003KT P6SM SKC